4PN9 weather

Public forecast

Using degrees Fahrenheit for public forecast. Weather courtesy of forecast.io.

Closest aviation weather report (METAR) to Glenn's Helo Heliport

Closest report is Heritage Field, 10.0 nm (18.5 km) ESE. Retrieved 2020/08/14 13:54 UTC (32 minutes ago):

KPTW 141354Z AUTO 06007KT 9SM CLR 26/19 A3004 RMK AO2 SLP168 T02560194

Closest aviation forecast (TAF) to Glenn's Helo Heliport

Closest forecast is Reading Regional Carl A Spaatz Field, 10.6 nm (19.7 km) WNW. Retrieved 2020/08/14 12:22 UTC (2 hours ago):

TAF KRDG 141120Z 1412/1512 01004KT P6SM BKN035 TEMPO 1412/1414 BKN025 FM141400 04006KT P6SM BKN035 FM142000 06006KT P6SM SCT045 FM150000 VRB03KT P6SM SCT250